sensor_id;sensor_type;location;lat;lon;timestamp;temperature;humidity
29571;DHT22;16814;52.118;11.436;2022-10-31T00:02:04;14.20;99.90
29571;DHT22;16814;52.118;11.436;2022-10-31T00:04:29;14.40;99.90
29571;DHT22;16814;52.118;11.436;2022-10-31T00:06:55;14.10;99.90
29571;DHT22;16814;52.118;11.436;2022-10-31T00:09:20;14.20;99.90
29571;DHT22;16814;52.118;11.436;2022-10-31T00:11:46;14.20;99.90
29571;DHT22;16814;52.118;11.436;2022-10-31T00:14:12;14.20;99.90
29571;DHT22;16814;52.118;11.436;2022-10-31T00:16:37;14.20;99.90
29571;DHT22;16814;52.118;11.436;2022-10-31T00:19:05;14.20;99.90
29571;DHT22;16814;52.118;11.436;2022-10-31T00:21:31;14.20;99.90
29571;DHT22;16814;52.118;11.436;2022-10-31T00:23:58;14.20;99.90
29571;DHT22;16814;52.118;11.436;2022-10-31T00:26:24;14.20;99.90
29571;DHT22;16814;52.118;11.436;2022-10-31T00:28:50;14.20;99.90
29571;DHT22;16814;52.118;11.436;2022-10-31T00:31:16;14.10;99.90
29571;DHT22;16814;52.118;11.436;2022-10-31T00:33:42;14.10;99.90
29571;DHT22;16814;52.118;11.436;2022-10-31T00:36:12;14.00;99.90
29571;DHT22;16814;52.118;11.436;2022-10-31T00:38:38;14.00;99.90
29571;DHT22;16814;52.118;11.436;2022-10-31T00:41:03;13.90;99.90
29571;DHT22;16814;52.118;11.436;2022-10-31T00:43:29;13.80;99.90
29571;DHT22;16814;52.118;11.436;2022-10-31T00:45:54;13.90;99.90
29571;DHT22;16814;52.118;11.436;2022-10-31T00:48:20;13.90;99.90
29571;DHT22;16814;52.118;11.436;2022-10-31T00:50:45;13.80;99.90
29571;DHT22;16814;52.118;11.436;2022-10-31T00:53:11;13.80;99.90
29571;DHT22;16814;52.118;11.436;2022-10-31T00:55:36;13.90;99.90
29571;DHT22;16814;52.118;11.436;2022-10-31T00:58:02;13.90;99.90
29571;DHT22;16814;52.118;11.436;2022-10-31T01:00:27;13.90;99.90
29571;DHT22;16814;52.118;11.436;2022-10-31T01:02:53;14.00;99.90
29571;DHT22;16814;52.118;11.436;2022-10-31T01:05:19;13.80;99.90
29571;DHT22;16814;52.118;11.436;2022-10-31T01:07:44;14.00;99.90
29571;DHT22;16814;52.118;11.436;2022-10-31T01:10:10;14.20;99.90
29571;DHT22;16814;52.118;11.436;2022-10-31T01:12:40;14.00;99.90
29571;DHT22;16814;52.118;11.436;2022-10-31T01:15:06;14.00;99.90
29571;DHT22;16814;52.118;11.436;2022-10-31T01:17:32;14.00;99.90
29571;DHT22;16814;52.118;11.436;2022-10-31T01:19:58;13.90;99.90
29571;DHT22;16814;52.118;11.436;2022-10-31T01:22:23;14.00;99.90
29571;DHT22;16814;52.118;11.436;2022-10-31T01:24:48;14.00;99.90
29571;DHT22;16814;52.118;11.436;2022-10-31T01:27:14;14.10;99.90
29571;DHT22;16814;52.118;11.436;2022-10-31T01:29:39;14.10;99.90
29571;DHT22;16814;52.118;11.436;2022-10-31T01:32:05;14.10;99.90
29571;DHT22;16814;52.118;11.436;2022-10-31T01:34:30;14.00;99.90
29571;DHT22;16814;52.118;11.436;2022-10-31T01:36:56;14.10;99.90
29571;DHT22;16814;52.118;11.436;2022-10-31T01:39:22;14.00;99.90
29571;DHT22;16814;52.118;11.436;2022-10-31T01:41:50;13.90;99.90
29571;DHT22;16814;52.118;11.436;2022-10-31T01:46:48;13.90;99.90
29571;DHT22;16814;52.118;11.436;2022-10-31T01:49:21;13.80;99.90
29571;DHT22;16814;52.118;11.436;2022-10-31T01:51:53;13.80;99.90
29571;DHT22;16814;52.118;11.436;2022-10-31T01:54:22;13.90;99.90
29571;DHT22;16814;52.118;11.436;2022-10-31T01:56:51;13.90;99.90
29571;DHT22;16814;52.118;11.436;2022-10-31T01:59:19;13.90;99.90
29571;DHT22;16814;52.118;11.436;2022-10-31T02:01:47;13.90;99.90
29571;DHT22;16814;52.118;11.436;2022-10-31T02:04:14;13.90;99.90
29571;DHT22;16814;52.118;11.436;2022-10-31T02:06:46;13.80;99.90
29571;DHT22;16814;52.118;11.436;2022-10-31T02:09:13;13.80;99.90
29571;DHT22;16814;52.118;11.436;2022-10-31T02:11:40;13.80;99.90
29571;DHT22;16814;52.118;11.436;2022-10-31T02:14:06;13.70;99.90
29571;DHT22;16814;52.118;11.436;2022-10-31T02:16:32;13.70;99.90
29571;DHT22;16814;52.118;11.436;2022-10-31T02:18:57;13.50;99.90
29571;DHT22;16814;52.118;11.436;2022-10-31T02:21:37;13.70;99.90
29571;DHT22;16814;52.118;11.436;2022-10-31T02:29:49;13.60;99.90
29571;DHT22;16814;52.118;11.436;2022-10-31T02:32:25;13.60;99.90
29571;DHT22;16814;52.118;11.436;2022-10-31T02:38:14;13.60;99.90
29571;DHT22;16814;52.118;11.436;2022-10-31T02:46:38;13.60;99.90
29571;DHT22;16814;52.118;11.436;2022-10-31T02:49:10;13.50;99.90
29571;DHT22;16814;52.118;11.436;2022-10-31T02:51:38;13.50;99.90
29571;DHT22;16814;52.118;11.436;2022-10-31T02:54:04;13.50;99.90
29571;DHT22;16814;52.118;11.436;2022-10-31T02:56:29;13.40;99.90
29571;DHT22;16814;52.118;11.436;2022-10-31T02:59:00;13.40;99.90
29571;DHT22;16814;52.118;11.436;2022-10-31T03:13:09;13.20;99.90
29571;DHT22;16814;52.118;11.436;2022-10-31T03:15:45;13.00;99.90
29571;DHT22;16814;52.118;11.436;2022-10-31T03:18:28;12.90;99.90
29571;DHT22;16814;52.118;11.436;2022-10-31T03:21:04;12.70;99.90
29571;DHT22;16814;52.118;11.436;2022-10-31T03:23:32;12.70;99.90
29571;DHT22;16814;52.118;11.436;2022-10-31T03:26:02;12.60;99.90
29571;DHT22;16814;52.118;11.436;2022-10-31T03:28:34;12.50;99.90
29571;DHT22;16814;52.118;11.436;2022-10-31T03:31:03;12.60;99.90
29571;DHT22;16814;52.118;11.436;2022-10-31T03:33:34;12.70;99.90
29571;DHT22;16814;52.118;11.436;2022-10-31T03:36:02;12.80;99.90
29571;DHT22;16814;52.118;11.436;2022-10-31T03:38:29;12.80;99.90
29571;DHT22;16814;52.118;11.436;2022-10-31T03:40:58;12.90;99.90
29571;DHT22;16814;52.118;11.436;2022-10-31T03:43:29;13.00;99.90
29571;DHT22;16814;52.118;11.436;2022-10-31T03:45:57;12.90;99.90
29571;DHT22;16814;52.118;11.436;2022-10-31T03:48:23;13.00;99.90
29571;DHT22;16814;52.118;11.436;2022-10-31T03:53:38;13.10;99.90
29571;DHT22;16814;52.118;11.436;2022-10-31T03:56:21;13.10;99.90
29571;DHT22;16814;52.118;11.436;2022-10-31T03:58:59;13.10;99.90
29571;DHT22;16814;52.118;11.436;2022-10-31T04:01:26;13.20;99.90
29571;DHT22;16814;52.118;11.436;2022-10-31T04:03:53;13.20;99.90
29571;DHT22;16814;52.118;11.436;2022-10-31T04:06:20;13.20;99.90
29571;DHT22;16814;52.118;11.436;2022-10-31T04:08:58;13.20;99.90
29571;DHT22;16814;52.118;11.436;2022-10-31T04:11:29;13.20;99.90
29571;DHT22;16814;52.118;11.436;2022-10-31T04:13:57;13.20;99.90
29571;DHT22;16814;52.118;11.436;2022-10-31T04:16:24;13.20;99.90
29571;DHT22;16814;52.118;11.436;2022-10-31T04:18:51;13.20;99.90
29571;DHT22;16814;52.118;11.436;2022-10-31T04:21:17;13.20;99.90
29571;DHT22;16814;52.118;11.436;2022-10-31T04:23:42;13.20;99.90
29571;DHT22;16814;52.118;11.436;2022-10-31T04:26:11;13.10;99.90
29571;DHT22;16814;52.118;11.436;2022-10-31T04:28:36;13.00;99.90
29571;DHT22;16814;52.118;11.436;2022-10-31T04:31:02;12.90;99.90
29571;DHT22;16814;52.118;11.436;2022-10-31T04:33:28;13.00;99.90
29571;DHT22;16814;52.118;11.436;2022-10-31T04:35:53;13.00;99.90
29571;DHT22;16814;52.118;11.436;2022-10-31T04:38:19;12.90;99.90
29571;DHT22;16814;52.118;11.436;2022-10-31T04:40:45;12.80;99.90
29571;DHT22;16814;52.118;11.436;2022-10-31T04:43:11;12.80;99.90
29571;DHT22;16814;52.118;11.436;2022-10-31T04:45:37;12.80;99.90
29571;DHT22;16814;52.118;11.436;2022-10-31T04:48:02;12.90;99.90
29571;DHT22;16814;52.118;11.436;2022-10-31T04:50:28;12.80;99.90
29571;DHT22;16814;52.118;11.436;2022-10-31T04:52:53;12.80;99.90
29571;DHT22;16814;52.118;11.436;2022-10-31T04:55:19;12.70;99.90
29571;DHT22;16814;52.118;11.436;2022-10-31T04:57:46;12.70;99.90
29571;DHT22;16814;52.118;11.436;2022-10-31T05:00:14;12.60;99.90
29571;DHT22;16814;52.118;11.436;2022-10-31T05:02:47;12.60;99.90
29571;DHT22;16814;52.118;11.436;2022-10-31T05:05:14;12.60;99.90
29571;DHT22;16814;52.118;11.436;2022-10-31T05:07:45;12.40;99.90
29571;DHT22;16814;52.118;11.436;2022-10-31T05:10:12;12.40;99.90
29571;DHT22;16814;52.118;11.436;2022-10-31T05:12:48;12.50;99.90
29571;DHT22;16814;52.118;11.436;2022-10-31T05:15:14;12.50;99.90
29571;DHT22;16814;52.118;11.436;2022-10-31T05:17:40;12.60;99.90
29571;DHT22;16814;52.118;11.436;2022-10-31T05:20:06;12.60;99.90
29571;DHT22;16814;52.118;11.436;2022-10-31T05:22:31;12.60;99.90
29571;DHT22;16814;52.118;11.436;2022-10-31T05:24:57;12.60;99.90
29571;DHT22;16814;52.118;11.436;2022-10-31T05:27:22;12.50;99.90
29571;DHT22;16814;52.118;11.436;2022-10-31T05:29:48;12.60;99.90
29571;DHT22;16814;52.118;11.436;2022-10-31T05:32:13;12.40;99.90
29571;DHT22;16814;52.118;11.436;2022-10-31T05:34:39;12.50;99.90
29571;DHT22;16814;52.118;11.436;2022-10-31T05:37:04;12.50;99.90
29571;DHT22;16814;52.118;11.436;2022-10-31T05:39:30;12.60;99.90
29571;DHT22;16814;52.118;11.436;2022-10-31T05:41:55;13.00;99.90
29571;DHT22;16814;52.118;11.436;2022-10-31T05:44:21;13.00;99.90
29571;DHT22;16814;52.118;11.436;2022-10-31T05:46:46;13.00;99.90
29571;DHT22;16814;52.118;11.436;2022-10-31T05:49:12;13.20;99.90
29571;DHT22;16814;52.118;11.436;2022-10-31T05:51:37;13.30;99.90
29571;DHT22;16814;52.118;11.436;2022-10-31T05:54:03;13.40;99.90
29571;DHT22;16814;52.118;11.436;2022-10-31T05:56:30;13.30;99.90
29571;DHT22;16814;52.118;11.436;2022-10-31T05:58:57;13.30;99.90
29571;DHT22;16814;52.118;11.436;2022-10-31T06:01:22;13.30;99.90
29571;DHT22;16814;52.118;11.436;2022-10-31T06:03:48;13.30;99.90
29571;DHT22;16814;52.118;11.436;2022-10-31T06:06:13;13.40;99.90
29571;DHT22;16814;52.118;11.436;2022-10-31T06:08:40;13.50;99.90
29571;DHT22;16814;52.118;11.436;2022-10-31T06:11:05;13.50;99.90
29571;DHT22;16814;52.118;11.436;2022-10-31T06:13:31;13.60;99.90
29571;DHT22;16814;52.118;11.436;2022-10-31T06:15:56;13.60;99.90
29571;DHT22;16814;52.118;11.436;2022-10-31T06:18:21;13.50;99.90
29571;DHT22;16814;52.118;11.436;2022-10-31T06:20:47;13.20;99.90
29571;DHT22;16814;52.118;11.436;2022-10-31T06:23:13;13.10;99.90
29571;DHT22;16814;52.118;11.436;2022-10-31T06:25:38;13.30;99.90
29571;DHT22;16814;52.118;11.436;2022-10-31T06:28:04;13.20;99.90
29571;DHT22;16814;52.118;11.436;2022-10-31T06:30:30;13.30;99.90
29571;DHT22;16814;52.118;11.436;2022-10-31T06:33:02;13.30;99.90
29571;DHT22;16814;52.118;11.436;2022-10-31T06:35:30;13.40;99.90
29571;DHT22;16814;52.118;11.436;2022-10-31T06:37:57;13.60;99.90
29571;DHT22;16814;52.118;11.436;2022-10-31T06:40:24;13.80;99.90
29571;DHT22;16814;52.118;11.436;2022-10-31T06:42:58;13.90;99.90
29571;DHT22;16814;52.118;11.436;2022-10-31T06:45:24;14.00;99.90
29571;DHT22;16814;52.118;11.436;2022-10-31T06:47:52;14.00;99.90
29571;DHT22;16814;52.118;11.436;2022-10-31T06:50:17;13.80;99.90
29571;DHT22;16814;52.118;11.436;2022-10-31T06:52:43;13.90;99.90
29571;DHT22;16814;52.118;11.436;2022-10-31T06:55:08;13.90;99.90
29571;DHT22;16814;52.118;11.436;2022-10-31T06:57:34;13.90;99.90
29571;DHT22;16814;52.118;11.436;2022-10-31T06:59:59;13.50;99.90
29571;DHT22;16814;52.118;11.436;2022-10-31T07:02:25;13.80;99.90
29571;DHT22;16814;52.118;11.436;2022-10-31T07:04:50;13.60;99.90
29571;DHT22;16814;52.118;11.436;2022-10-31T07:07:16;13.60;99.90
29571;DHT22;16814;52.118;11.436;2022-10-31T07:09:41;13.50;99.90
29571;DHT22;16814;52.118;11.436;2022-10-31T07:12:07;13.50;99.90
29571;DHT22;16814;52.118;11.436;2022-10-31T07:14:32;13.50;99.90
29571;DHT22;16814;52.118;11.436;2022-10-31T07:16:58;13.60;99.90
29571;DHT22;16814;52.118;11.436;2022-10-31T07:19:23;13.50;99.90
29571;DHT22;16814;52.118;11.436;2022-10-31T07:21:49;13.50;99.90
29571;DHT22;16814;52.118;11.436;2022-10-31T07:24:14;13.50;99.90
29571;DHT22;16814;52.118;11.436;2022-10-31T07:26:40;13.60;99.90
29571;DHT22;16814;52.118;11.436;2022-10-31T07:29:07;13.80;99.90
29571;DHT22;16814;52.118;11.436;2022-10-31T07:31:32;14.00;99.90
29571;DHT22;16814;52.118;11.436;2022-10-31T07:33:58;14.10;99.90
29571;DHT22;16814;52.118;11.436;2022-10-31T07:36:23;14.20;99.90
29571;DHT22;16814;52.118;11.436;2022-10-31T07:38:49;14.30;99.90
29571;DHT22;16814;52.118;11.436;2022-10-31T07:41:15;14.30;99.90
29571;DHT22;16814;52.118;11.436;2022-10-31T07:43:40;14.30;99.90
29571;DHT22;16814;52.118;11.436;2022-10-31T07:46:06;14.50;99.90
29571;DHT22;16814;52.118;11.436;2022-10-31T07:48:31;14.60;99.90
29571;DHT22;16814;52.118;11.436;2022-10-31T07:50:57;14.60;99.90
29571;DHT22;16814;52.118;11.436;2022-10-31T07:53:22;14.60;99.90
29571;DHT22;16814;52.118;11.436;2022-10-31T07:55:48;14.60;99.90
29571;DHT22;16814;52.118;11.436;2022-10-31T07:58:17;14.70;99.90
29571;DHT22;16814;52.118;11.436;2022-10-31T08:00:44;14.60;99.90
29571;DHT22;16814;52.118;11.436;2022-10-31T08:03:15;14.60;99.90
29571;DHT22;16814;52.118;11.436;2022-10-31T08:05:41;14.60;99.90
29571;DHT22;16814;52.118;11.436;2022-10-31T08:08:07;14.60;99.90
29571;DHT22;16814;52.118;11.436;2022-10-31T08:10:33;14.60;99.90
29571;DHT22;16814;52.118;11.436;2022-10-31T08:13:10;14.50;99.90
29571;DHT22;16814;52.118;11.436;2022-10-31T08:15:36;14.70;99.90
29571;DHT22;16814;52.118;11.436;2022-10-31T08:18:05;14.80;99.90
29571;DHT22;16814;52.118;11.436;2022-10-31T08:20:31;14.70;99.90
29571;DHT22;16814;52.118;11.436;2022-10-31T08:23:00;14.60;99.90
29571;DHT22;16814;52.118;11.436;2022-10-31T08:25:29;14.50;99.90
29571;DHT22;16814;52.118;11.436;2022-10-31T08:27:55;14.60;99.90
29571;DHT22;16814;52.118;11.436;2022-10-31T08:30:24;14.60;99.90
29571;DHT22;16814;52.118;11.436;2022-10-31T08:33:13;14.90;99.90
29571;DHT22;16814;52.118;11.436;2022-10-31T08:35:38;15.00;99.90
29571;DHT22;16814;52.118;11.436;2022-10-31T08:38:04;15.00;99.90
29571;DHT22;16814;52.118;11.436;2022-10-31T08:40:31;14.90;99.90
29571;DHT22;16814;52.118;11.436;2022-10-31T08:43:05;14.80;99.90
29571;DHT22;16814;52.118;11.436;2022-10-31T08:45:32;14.60;99.90
29571;DHT22;16814;52.118;11.436;2022-10-31T08:47:59;14.60;99.90
29571;DHT22;16814;52.118;11.436;2022-10-31T08:50:26;14.70;99.90
29571;DHT22;16814;52.118;11.436;2022-10-31T08:52:51;14.60;99.90
29571;DHT22;16814;52.118;11.436;2022-10-31T08:55:17;14.60;99.90
29571;DHT22;16814;52.118;11.436;2022-10-31T08:57:42;14.60;99.90
29571;DHT22;16814;52.118;11.436;2022-10-31T09:00:08;14.60;99.90
29571;DHT22;16814;52.118;11.436;2022-10-31T09:02:34;14.60;99.90
29571;DHT22;16814;52.118;11.436;2022-10-31T09:04:59;14.70;99.90
29571;DHT22;16814;52.118;11.436;2022-10-31T09:07:25;14.70;99.90
29571;DHT22;16814;52.118;11.436;2022-10-31T09:09:51;14.70;99.90
29571;DHT22;16814;52.118;11.436;2022-10-31T09:12:16;14.70;99.90
29571;DHT22;16814;52.118;11.436;2022-10-31T09:14:41;14.70;99.90
29571;DHT22;16814;52.118;11.436;2022-10-31T09:17:07;14.70;99.90
29571;DHT22;16814;52.118;11.436;2022-10-31T09:19:32;14.70;99.90
29571;DHT22;16814;52.118;11.436;2022-10-31T09:21:58;14.60;99.90
29571;DHT22;16814;52.118;11.436;2022-10-31T09:24:23;14.50;99.90
29571;DHT22;16814;52.118;11.436;2022-10-31T09:26:49;14.60;99.90
29571;DHT22;16814;52.118;11.436;2022-10-31T09:29:14;14.70;99.90
29571;DHT22;16814;52.118;11.436;2022-10-31T09:31:40;14.80;99.90
29571;DHT22;16814;52.118;11.436;2022-10-31T09:34:05;14.90;99.90
29571;DHT22;16814;52.118;11.436;2022-10-31T09:36:31;15.20;99.90
29571;DHT22;16814;52.118;11.436;2022-10-31T09:38:57;15.20;99.90
29571;DHT22;16814;52.118;11.436;2022-10-31T09:41:52;15.10;99.90
29571;DHT22;16814;52.118;11.436;2022-10-31T09:47:37;15.30;99.90
29571;DHT22;16814;52.118;11.436;2022-10-31T09:50:28;15.20;99.90
29571;DHT22;16814;52.118;11.436;2022-10-31T09:53:03;15.20;99.90
29571;DHT22;16814;52.118;11.436;2022-10-31T09:55:42;15.30;99.90
29571;DHT22;16814;52.118;11.436;2022-10-31T09:58:16;15.30;99.90
29571;DHT22;16814;52.118;11.436;2022-10-31T10:00:46;15.20;99.90
29571;DHT22;16814;52.118;11.436;2022-10-31T10:03:29;15.00;99.90
29571;DHT22;16814;52.118;11.436;2022-10-31T10:06:12;15.00;99.90
29571;DHT22;16814;52.118;11.436;2022-10-31T10:08:39;15.00;99.90
29571;DHT22;16814;52.118;11.436;2022-10-31T10:13:39;15.20;99.90
29571;DHT22;16814;52.118;11.436;2022-10-31T10:16:23;15.40;99.90
29571;DHT22;16814;52.118;11.436;2022-10-31T10:19:11;15.70;99.90
29571;DHT22;16814;52.118;11.436;2022-10-31T10:22:10;15.80;99.90
29571;DHT22;16814;52.118;11.436;2022-10-31T10:25:07;16.00;99.90
29571;DHT22;16814;52.118;11.436;2022-10-31T10:27:48;16.00;99.90
29571;DHT22;16814;52.118;11.436;2022-10-31T10:32:49;15.90;99.90
29571;DHT22;16814;52.118;11.436;2022-10-31T10:35:29;16.00;99.90
29571;DHT22;16814;52.118;11.436;2022-10-31T10:38:07;16.00;99.90
29571;DHT22;16814;52.118;11.436;2022-10-31T10:40:34;16.00;99.90
29571;DHT22;16814;52.118;11.436;2022-10-31T10:43:19;16.10;99.90
29571;DHT22;16814;52.118;11.436;2022-10-31T10:49:37;16.50;99.90
29571;DHT22;16814;52.118;11.436;2022-10-31T10:55:08;16.90;99.90
29571;DHT22;16814;52.118;11.436;2022-10-31T10:57:58;17.10;99.90
29571;DHT22;16814;52.118;11.436;2022-10-31T11:00:43;17.30;99.90
29571;DHT22;16814;52.118;11.436;2022-10-31T11:03:13;17.40;99.90
29571;DHT22;16814;52.118;11.436;2022-10-31T11:05:48;17.40;99.90
29571;DHT22;16814;52.118;11.436;2022-10-31T11:13:35;17.40;99.90
29571;DHT22;16814;52.118;11.436;2022-10-31T11:16:04;17.50;99.90
29571;DHT22;16814;52.118;11.436;2022-10-31T11:18:32;17.10;99.90
29571;DHT22;16814;52.118;11.436;2022-10-31T11:21:01;17.00;99.90
29571;DHT22;16814;52.118;11.436;2022-10-31T11:23:28;16.70;99.90
29571;DHT22;16814;52.118;11.436;2022-10-31T11:26:01;16.80;99.90
29571;DHT22;16814;52.118;11.436;2022-10-31T11:28:28;16.70;99.90
29571;DHT22;16814;52.118;11.436;2022-10-31T11:31:01;16.90;99.90
29571;DHT22;16814;52.118;11.436;2022-10-31T11:33:49;16.90;99.90
29571;DHT22;16814;52.118;11.436;2022-10-31T11:36:22;17.00;99.90
29571;DHT22;16814;52.118;11.436;2022-10-31T11:38:49;17.00;99.90
29571;DHT22;16814;52.118;11.436;2022-10-31T11:41:24;16.90;99.90
29571;DHT22;16814;52.118;11.436;2022-10-31T11:43:55;16.80;99.90
29571;DHT22;16814;52.118;11.436;2022-10-31T11:46:41;16.90;99.90
29571;DHT22;16814;52.118;11.436;2022-10-31T11:49:34;16.80;99.90
29571;DHT22;16814;52.118;11.436;2022-10-31T11:52:02;16.70;99.90
29571;DHT22;16814;52.118;11.436;2022-10-31T11:54:32;16.80;99.90
29571;DHT22;16814;52.118;11.436;2022-10-31T11:56:58;16.50;99.90
29571;DHT22;16814;52.118;11.436;2022-10-31T11:59:31;16.40;99.90
29571;DHT22;16814;52.118;11.436;2022-10-31T12:02:01;16.50;99.90
29571;DHT22;16814;52.118;11.436;2022-10-31T12:04:41;16.30;99.90
29571;DHT22;16814;52.118;11.436;2022-10-31T12:07:08;16.30;99.90
29571;DHT22;16814;52.118;11.436;2022-10-31T12:09:35;16.30;99.90
29571;DHT22;16814;52.118;11.436;2022-10-31T12:14:50;16.30;99.90
29571;DHT22;16814;52.118;11.436;2022-10-31T12:17:21;16.20;99.90
29571;DHT22;16814;52.118;11.436;2022-10-31T12:22:30;16.60;99.90
29571;DHT22;16814;52.118;11.436;2022-10-31T12:31:13;16.40;99.90
29571;DHT22;16814;52.118;11.436;2022-10-31T12:33:43;16.30;99.90
29571;DHT22;16814;52.118;11.436;2022-10-31T12:39:37;16.50;99.90
29571;DHT22;16814;52.118;11.436;2022-10-31T12:42:41;16.20;99.90
29571;DHT22;16814;52.118;11.436;2022-10-31T12:45:22;16.30;99.90
29571;DHT22;16814;52.118;11.436;2022-10-31T12:48:19;16.20;99.90
29571;DHT22;16814;52.118;11.436;2022-10-31T12:53:48;15.80;99.90
29571;DHT22;16814;52.118;11.436;2022-10-31T12:59:40;15.60;99.90
29571;DHT22;16814;52.118;11.436;2022-10-31T13:02:30;15.70;99.90
29571;DHT22;16814;52.118;11.436;2022-10-31T13:05:05;15.90;99.90
29571;DHT22;16814;52.118;11.436;2022-10-31T13:07:44;15.90;99.90
29571;DHT22;16814;52.118;11.436;2022-10-31T13:12:54;16.00;99.90
29571;DHT22;16814;52.118;11.436;2022-10-31T13:15:25;15.90;99.90
29571;DHT22;16814;52.118;11.436;2022-10-31T13:18:00;15.90;99.90
29571;DHT22;16814;52.118;11.436;2022-10-31T13:20:30;15.60;99.90
29571;DHT22;16814;52.118;11.436;2022-10-31T13:23:12;15.50;99.90
29571;DHT22;16814;52.118;11.436;2022-10-31T13:25:44;15.60;99.90
29571;DHT22;16814;52.118;11.436;2022-10-31T13:28:28;15.60;99.90
29571;DHT22;16814;52.118;11.436;2022-10-31T13:30:54;15.50;99.90
29571;DHT22;16814;52.118;11.436;2022-10-31T13:33:37;15.40;99.90
29571;DHT22;16814;52.118;11.436;2022-10-31T13:36:35;15.30;99.90
29571;DHT22;16814;52.118;11.436;2022-10-31T13:39:41;15.40;99.90
29571;DHT22;16814;52.118;11.436;2022-10-31T13:42:28;15.30;99.90
29571;DHT22;16814;52.118;11.436;2022-10-31T13:44:55;15.20;99.90
29571;DHT22;16814;52.118;11.436;2022-10-31T13:49:48;15.20;99.90
29571;DHT22;16814;52.118;11.436;2022-10-31T13:52:23;15.20;99.90
29571;DHT22;16814;52.118;11.436;2022-10-31T13:54:51;15.30;99.90
29571;DHT22;16814;52.118;11.436;2022-10-31T13:57:34;15.40;99.90
29571;DHT22;16814;52.118;11.436;2022-10-31T14:00:26;15.30;99.90
29571;DHT22;16814;52.118;11.436;2022-10-31T14:02:54;15.20;99.90
29571;DHT22;16814;52.118;11.436;2022-10-31T14:07:52;15.30;99.90
29571;DHT22;16814;52.118;11.436;2022-10-31T14:10:27;15.20;99.90
29571;DHT22;16814;52.118;11.436;2022-10-31T14:13:15;15.30;99.90
29571;DHT22;16814;52.118;11.436;2022-10-31T14:15:58;15.10;99.90
29571;DHT22;16814;52.118;11.436;2022-10-31T14:18:33;14.90;99.90
29571;DHT22;16814;52.118;11.436;2022-10-31T14:20:59;15.00;99.90
29571;DHT22;16814;52.118;11.436;2022-10-31T14:23:38;14.90;99.90
29571;DHT22;16814;52.118;11.436;2022-10-31T14:26:29;14.70;99.90
29571;DHT22;16814;52.118;11.436;2022-10-31T14:29:00;14.50;99.90
29571;DHT22;16814;52.118;11.436;2022-10-31T14:42:19;14.90;99.90
29571;DHT22;16814;52.118;11.436;2022-10-31T14:50:56;14.90;99.90
29571;DHT22;16814;52.118;11.436;2022-10-31T14:53:34;14.90;99.90
29571;DHT22;16814;52.118;11.436;2022-10-31T14:56:01;14.80;99.90
29571;DHT22;16814;52.118;11.436;2022-10-31T14:58:39;14.80;99.90
29571;DHT22;16814;52.118;11.436;2022-10-31T15:01:06;14.70;99.90
29571;DHT22;16814;52.118;11.436;2022-10-31T15:03:34;14.80;99.90
29571;DHT22;16814;52.118;11.436;2022-10-31T15:06:04;14.50;99.90
29571;DHT22;16814;52.118;11.436;2022-10-31T15:11:15;14.40;99.90
29571;DHT22;16814;52.118;11.436;2022-10-31T15:13:46;14.50;99.90
29571;DHT22;16814;52.118;11.436;2022-10-31T15:16:14;14.50;99.90
29571;DHT22;16814;52.118;11.436;2022-10-31T15:18:48;14.30;99.90
29571;DHT22;16814;52.118;11.436;2022-10-31T15:21:18;14.50;99.90
29571;DHT22;16814;52.118;11.436;2022-10-31T15:23:46;14.40;99.90
29571;DHT22;16814;52.118;11.436;2022-10-31T15:26:17;14.30;99.90
29571;DHT22;16814;52.118;11.436;2022-10-31T15:28:43;14.40;99.90
29571;DHT22;16814;52.118;11.436;2022-10-31T15:31:17;14.50;99.90
29571;DHT22;16814;52.118;11.436;2022-10-31T15:33:47;14.50;99.90
29571;DHT22;16814;52.118;11.436;2022-10-31T15:36:22;14.40;99.90
29571;DHT22;16814;52.118;11.436;2022-10-31T15:38:49;14.20;99.90
29571;DHT22;16814;52.118;11.436;2022-10-31T15:41:35;14.20;99.90
29571;DHT22;16814;52.118;11.436;2022-10-31T15:46:59;14.20;99.90
29571;DHT22;16814;52.118;11.436;2022-10-31T15:52:14;14.30;99.90
29571;DHT22;16814;52.118;11.436;2022-10-31T15:54:54;14.20;99.90
29571;DHT22;16814;52.118;11.436;2022-10-31T15:57:22;14.10;99.90
29571;DHT22;16814;52.118;11.436;2022-10-31T15:59:49;14.10;99.90
29571;DHT22;16814;52.118;11.436;2022-10-31T16:02:21;14.00;99.90
29571;DHT22;16814;52.118;11.436;2022-10-31T16:04:54;13.80;99.90
29571;DHT22;16814;52.118;11.436;2022-10-31T16:07:21;13.90;99.90
29571;DHT22;16814;52.118;11.436;2022-10-31T16:09:55;13.90;99.90
29571;DHT22;16814;52.118;11.436;2022-10-31T16:12:22;13.80;99.90
29571;DHT22;16814;52.118;11.436;2022-10-31T16:14:54;13.70;99.90
29571;DHT22;16814;52.118;11.436;2022-10-31T16:17:22;13.70;99.90
29571;DHT22;16814;52.118;11.436;2022-10-31T16:20:04;13.80;99.90
29571;DHT22;16814;52.118;11.436;2022-10-31T16:22:35;13.70;99.90
29571;DHT22;16814;52.118;11.436;2022-10-31T16:27:33;13.70;99.90
29571;DHT22;16814;52.118;11.436;2022-10-31T16:30:26;13.60;99.90
29571;DHT22;16814;52.118;11.436;2022-10-31T16:32:58;13.70;99.90
29571;DHT22;16814;52.118;11.436;2022-10-31T16:35:42;13.60;99.90
29571;DHT22;16814;52.118;11.436;2022-10-31T16:38:09;13.70;99.90
29571;DHT22;16814;52.118;11.436;2022-10-31T16:40:38;13.60;99.90
29571;DHT22;16814;52.118;11.436;2022-10-31T16:43:03;13.60;99.90
29571;DHT22;16814;52.118;11.436;2022-10-31T16:45:30;13.80;99.90
29571;DHT22;16814;52.118;11.436;2022-10-31T16:48:10;13.60;99.90
29571;DHT22;16814;52.118;11.436;2022-10-31T16:50:39;13.70;99.90
29571;DHT22;16814;52.118;11.436;2022-10-31T16:53:04;13.70;99.90
29571;DHT22;16814;52.118;11.436;2022-10-31T16:55:31;13.50;99.90
29571;DHT22;16814;52.118;11.436;2022-10-31T16:58:01;13.50;99.90
29571;DHT22;16814;52.118;11.436;2022-10-31T17:00:28;13.60;99.90
29571;DHT22;16814;52.118;11.436;2022-10-31T17:02:57;13.60;99.90
29571;DHT22;16814;52.118;11.436;2022-10-31T17:05:24;13.60;99.90
29571;DHT22;16814;52.118;11.436;2022-10-31T17:07:58;13.50;99.90
29571;DHT22;16814;52.118;11.436;2022-10-31T17:10:25;13.40;99.90
29571;DHT22;16814;52.118;11.436;2022-10-31T17:12:51;13.40;99.90
29571;DHT22;16814;52.118;11.436;2022-10-31T17:15:28;13.40;99.90
29571;DHT22;16814;52.118;11.436;2022-10-31T17:18:01;13.30;99.90
29571;DHT22;16814;52.118;11.436;2022-10-31T17:20:32;13.30;99.90
29571;DHT22;16814;52.118;11.436;2022-10-31T17:22:59;13.30;99.90